PAAQ METAR and TAF weather

Enter ICAO airport designator
Station Type Date Time Source
PAAQ METAR 2019/10/21 21:53 UTC NOAA

PAAQ 212153Z 36005KT 10SM SCT045 OVC080 06/M05 A2969 RMK AO2 SLP057 T00611050


Station Type Date Time Source
PAAQ Decoded METAR 2019/10/21 21:53 UTC NOAA

PALMER MUNICIPAL AIRPORT, AK, United States (PAAQ) 61-36N 149-06W
Oct 21, 2019 - 05:53 PM EDT / 2019.10.21 2153 UTC
Wind: from the N (360 degrees) at 6 MPH (5 KT):0
Visibility: 10 mile(s):0
Sky conditions: overcast
Temperature: 43.0 F (6.1 C)
Dew Point: 23.0 F (-5.0 C)
Relative Humidity: 44%
Pressure (altimeter): 29.69 in. Hg (1005 hPa)
ob: PAAQ 212153Z 36005KT 10SM SCT045 OVC080 06/M05 A2969 RMK AO2 SLP057 T00611050
cycle: 22

Station Type Date Time Source
PAAQ TAF 2019/10/21 18:24 UTC NOAA

TAF PAAQ 211723Z 2118/2218 35006KT P6SM VCSH SCT045 OVC060

Example: see airport list